Aérodrome :
LOGIN :

S'inscrire | Disclaimer

   EN    FR    IT 

 










Légende :    VFR   VFR Marginal   IFR   IFR Intensif   IFR Très Intensif
Visi : 
Plafond : 
>= 8 km
>= 3000ft
5 à 8 km
1000 à 3000 ft
1500m à 5 km
500 à 1000 ft
800 à 1500m
200 à 500 ft
< 800m
< 200 ft
Symboles :   Orages  Brouillard  Fortes neiges  Fortes précipitations  Vent > 20 kt
SIGMETs :   Divers  Orages  Givrage  Turbulence  Onde Orograph.  Cendres Volcan.







- Altitude de l'aérodrome : 659 ft
- Code IATA : LYN
- Voir les cartes d'approche


LFLY - Lyon Bron

DERNIER METAR :
  • 230900Z AUTO 06003KT 010V130 9999 SCT013 BKN018 18/13 Q1019 NOSIG

METARs EXPIRÉS :
  • 230830Z AUTO VRB02KT CAVOK 16/14 Q1019 NOSIG
  • 230800Z AUTO VRB03KT 9999 BKN007 15/14 Q1019 BECMG SCT030
  • 230730Z AUTO VRB01KT 9999 OVC004 14/14 Q1019 BECMG SCT030
  • 230700Z AUTO VRB02KT 9000 OVC004 14/14 Q1019 TEMPO 1000 BCFG BECMG SCT030
  • 230630Z AUTO VRB02KT 9999 BKN006 14/13 Q1019 TEMPO 1000 BCFG BECMG SCT030

TAF AMD TAF LFLY
Valide du 23 à 07h jusqu'au 24 à 06h UTC


230712Z 2307/2406 VRB04KT 8000 BKN005
BECMG 2308/2310 36006KT 9999 SCT030
BECMG 2318/2320 VRB02KT CAVOK
ATIS : +33 4 72 15 87 96
Pas de NOTAMs connus pour ce terrain.



MET'MAP, la Météo Aéronautique d'un coup d'oeil ! - Copyright ORBIFLY Décembre 2007 - Disclaimer

ORBIFLY MET'MAP TEAM :

Programmation & Développement : Alexandra Zaïnal
Conception & Développement : Baudouin d'Aumeries
Co-Programmation & Développement : Marc-Olivier Méhu
Soutien technique & logistique : Manuel Goepfert

Contact : metmap@orbifly.com




SOURCES & CREDITS :

   NOAA